Terminal Aerodrome Forecast
Issued by NWS

Home | Current Version | Previous Version | Text Only | Print | Product List | Glossary On
Versions: 1 2 3 4 5 6 7 8 9 10 11 12 13 14
640
FTUS45 KABQ 270539
TAFROW
TAF
KROW 270539Z 2706/2806 19011KT P6SM FEW250
     FM271200 23015KT P6SM SCT250
     FM271600 24020G30KT P6SM SCT120
     FM272100 25028G38KT 6SM BLDU SCT100
     FM280200 26020G30KT P6SM SCT100
     FM280500 30015G25KT P6SM SCT100=

USA.gov is the U.S. government's official web portal to all federal, state and local government web resources and services.